Airfield :
LOGIN :

Register | Disclaimer

   EN    FR    IT 

 










Legend :    VFR   Marginal VFR   IFR   Intensive IFR   Very Intensive IFR
Visi :
Ceiling :
>= 8 km
>= 3000ft
5 to 8 km
1000 to 3000 ft
1500m to 5 km
500 to 1000 ft
800 to 1500m
200 to 500 ft
< 800m
< 200 ft
Symbols :   Thunderstorms  Fog  Heavy snow  Heavy precipitations  Wind > 20 kt
SIGMETs :     Misc.  Thunderstorms  Icing  Turbulence  Mountain Waves  Volcanic Ashes







- Airport Elevation : 789 ft
- IATA code : BZO


LIPB - Bolzano

CURRENT METAR :
  • 240850Z 00000KT 9999 FEW110 23/07 Q1018

EXPIRED METARs :
  • 240750Z 21002KT 9999 SCT100 20/10 Q1018
  • 240650Z 00000KT 9999 FEW100 19/10 Q1018

TAF TAF LIPB
Valid from the 24 at 06:00 until the 25 at 06:00 UTC


240500Z 2406/2506 VRB05KT 9999 SCT040
BECMG 2410/2412 36012KT
BECMG 2418/2420 VRB05KT
No reported NOTAMs for that airfield.
1 SIGMET reported for the Milano FIR (LIMM) :
 
Severe turbulence
LIMM SIGMET 1 VALID 240830/241230 LIMM- LIMM MILANO FIR SEV TURB FCST WI N4627 E00951 - N4653 E01022 - N4704 E01210 - N4625 E01340 - N4602 E01336 - N4627 E00951 FL300/400 STNR NC=



MET'MAP, your aeronautical weather chart ! - Copyright ORBIFLY December 2007 - Disclaimer

ORBIFLY MET'MAP TEAM :

Programming & Development : Alexandra Zaïnal
Concept & Development : Baudouin d'Aumeries
Co-Development & Prog : Marc-Olivier Méhu
Technical & hardware support : Manuel Goepfert

Contact : metmap@orbifly.com




SOURCES & CREDITS :

   NOAA